Time;durP1;ratioP1;P1;durP2;ratioP2;P2;SDS_P1;SDS_P2;PMS_P1;PMS_P2;Temp;Humidity;BMP_temperature;BMP_pressure;BME280_temperature;BME280_humidity;BME280_pressure;Samples;Min_cycle;Max_cycle;Signal;HPM_P1;HPM_P2
2021/01/05 00:01:23;;;;;;;;;;;;;;;-0.06;78.31;101846.19;5106143;28;19907;-63
2021/01/05 00:03:49;;;;;;;;;;;;;;;0.14;77.50;101843.91;5105825;28;19986;-63
2021/01/05 00:06:14;;;;;;;;;;;;;;;-0.04;78.02;101844.59;5104629;28;19908;-63
2021/01/05 00:08:39;;;;;;;;;;;;;;;-0.08;78.27;101847.75;5105790;28;19908;-63
2021/01/05 00:11:05;;;;;;;;;;;;;;;-0.12;78.35;101840.72;5105969;28;19939;-63
2021/01/05 00:13:30;;;;;;;;;;;;;;;-0.08;78.39;101852.84;5105722;28;19962;-64
2021/01/05 00:15:55;;;;;;;;;;;;;;;-0.04;78.13;101844.59;5105918;28;19908;-62
2021/01/05 00:18:21;;;;;;;;;;;;;;;-0.08;78.14;101857.97;5104293;28;20352;-63
2021/01/05 00:20:46;;;;;;;;;;;;;;;0.02;77.83;101845.78;5105276;28;20002;-62
2021/01/05 00:23:12;;;;;;;;;;;;;;;-0.07;78.18;101844.44;5105771;28;19912;-62
2021/01/05 00:25:37;;;;;;;;;;;;;;;-0.06;78.31;101847.84;5105608;28;19915;-62
2021/01/05 00:28:02;;;;;;;;;;;;;;;-0.09;78.44;101846.00;5105435;28;19908;-62
2021/01/05 00:30:28;;;;;;;;;;;;;;;-0.06;78.23;101845.28;5104393;28;19951;-63
2021/01/05 00:32:54;;;;;;;;;;;;;;;-0.12;78.37;101840.72;5105459;28;19907;-62
2021/01/05 00:35:21;;;;;;;;;;;;;;;-0.11;78.37;101847.56;5105262;28;19912;-61
2021/01/05 00:37:47;;;;;;;;;;;;;;;-0.12;78.23;101840.72;5104249;28;19930;-62
2021/01/05 00:40:13;;;;;;;;;;;;;;;-0.09;78.33;101834.91;5105125;28;20439;-63
2021/01/05 00:42:38;;;;;;;;;;;;;;;-0.10;78.25;101844.25;5105385;28;20010;-63
2021/01/05 00:45:04;;;;;;;;;;;;;;;-0.12;78.32;101835.63;5105132;28;20268;-62
2021/01/05 00:47:29;;;;;;;;;;;;;;;-0.02;77.80;101837.03;5103862;28;19939;-61
2021/01/05 00:49:54;;;;;;;;;;;;;;;-0.07;77.98;101846.09;5104778;28;19915;-61
2021/01/05 00:52:20;;;;;;;;;;;;;;;-0.11;78.11;101837.38;5103772;28;19979;-62
2021/01/05 00:54:45;;;;;;;;;;;;;;;-0.06;77.88;101835.06;5105031;28;19912;-61
2021/01/05 00:57:11;;;;;;;;;;;;;;;-0.11;78.12;101834.81;5105201;28;20429;-62
2021/01/05 00:59:36;;;;;;;;;;;;;;;-0.06;77.79;101851.28;5104910;28;19908;-62
2021/01/05 01:02:02;;;;;;;;;;;;;;;-0.12;78.04;101835.63;5104874;28;19937;-63
2021/01/05 01:04:28;;;;;;;;;;;;;;;-0.04;77.91;101841.16;5104595;28;19933;-60
2021/01/05 01:06:53;;;;;;;;;;;;;;;-0.05;77.82;101826.66;5105037;28;19904;-61
2021/01/05 01:09:18;;;;;;;;;;;;;;;-0.05;77.79;101837.72;5104628;28;19912;-62
2021/01/05 01:11:57;;;;;;;;;;;;;;;-0.10;78.19;101836.59;5104256;28;19908;-62
2021/01/05 01:14:22;;;;;;;;;;;;;;;-0.08;78.14;101844.34;5104611;28;19965;-62
2021/01/05 01:16:47;;;;;;;;;;;;;;;-0.07;77.96;101856.31;5104950;28;19908;-62
2021/01/05 01:19:12;;;;;;;;;;;;;;;-0.09;77.97;101852.78;5104618;28;19930;-60
2021/01/05 01:21:43;;;;;;;;;;;;;;;-0.11;77.84;101864.59;5104785;28;19918;-61
2021/01/05 01:24:08;;;;;;;;;;;;;;;-0.13;78.04;101854.28;5104704;28;19935;-61
2021/01/05 01:26:34;;;;;;;;;;;;;;;-0.15;78.05;101868.63;5104793;28;19908;-61
2021/01/05 01:28:59;;;;;;;;;;;;;;;-0.08;77.75;101867.31;5104646;28;19911;-61
2021/01/05 01:31:24;;;;;;;;;;;;;;;-0.09;77.79;101862.97;5104604;28;19912;-62
2021/01/05 01:33:49;;;;;;;;;;;;;;;-0.07;77.73;101864.84;5104551;28;19954;-62
2021/01/05 01:36:14;;;;;;;;;;;;;;;-0.06;77.56;101875.94;5104383;28;19908;-62
2021/01/05 01:38:40;;;;;;;;;;;;;;;-0.10;77.63;101871.44;5104111;28;19915;-61
2021/01/05 01:41:05;;;;;;;;;;;;;;;-0.13;77.91;101864.50;5103455;28;19908;-62
2021/01/05 01:43:30;;;;;;;;;;;;;;;-0.08;77.77;101859.66;5104047;28;19937;-62
2021/01/05 01:45:55;;;;;;;;;;;;;;;-0.09;77.73;101856.22;5104528;28;19908;-62
2021/01/05 01:48:21;;;;;;;;;;;;;;;-0.11;77.84;101865.44;5104349;28;19908;-61
2021/01/05 01:50:46;;;;;;;;;;;;;;;-0.03;77.21;101860.78;5104270;28;20342;-62
2021/01/05 01:53:24;;;;;;;;;;;;;;;-0.11;77.57;101857.78;5104470;28;19908;-62
2021/01/05 01:56:08;;;;;;;;;;;;;;;-0.13;77.65;101851.72;5104368;28;19923;-62
2021/01/05 01:58:48;;;;;;;;;;;;;;;-0.10;77.74;101851.03;5104370;28;19935;-62
2021/01/05 02:01:22;;;;;;;;;;;;;;;-0.10;77.72;101862.13;5104375;28;19914;-62
2021/01/05 02:04:06;;;;;;;;;;;;;;;-0.08;77.67;101857.09;5103948;28;19912;-61
2021/01/05 02:06:31;;;;;;;;;;;;;;;-0.08;77.56;101857.97;5103814;28;19908;-61
2021/01/05 02:09:16;;;;;;;;;;;;;;;-0.08;77.60;101857.97;5104163;28;19908;-62
2021/01/05 02:11:51;;;;;;;;;;;;;;;-0.10;77.82;101856.13;5104111;28;19904;-62
2021/01/05 02:14:16;;;;;;;;;;;;;;;-0.06;77.76;101856.41;5104078;28;20285;-61
2021/01/05 02:16:55;;;;;;;;;;;;;;;-0.08;77.68;101854.56;5104048;28;20367;-61
2021/01/05 02:19:32;;;;;;;;;;;;;;;-0.08;77.74;101860.53;5103732;28;19908;-62
2021/01/05 02:22:16;;;;;;;;;;;;;;;-0.08;77.68;101849.44;5103893;28;19975;-62
2021/01/05 02:24:50;;;;;;;;;;;;;;;-0.07;77.36;101853.75;5107946;28;19908;-62
2021/01/05 02:27:16;;;;;;;;;;;;;;;-0.10;77.44;101844.25;5108138;28;19908;-61
2021/01/05 02:29:41;;;;;;;;;;;;;;;-0.14;77.64;101849.94;5107613;28;19908;-61
2021/01/05 02:32:25;;;;;;;;;;;;;;;-0.07;76.98;101844.44;5107740;28;19912;-62
2021/01/05 02:34:56;;;;;;;;;;;;;;;-0.17;77.40;101853.22;5107415;28;19934;-62
2021/01/05 02:37:24;;;;;;;;;;;;;;;-0.23;77.52;101846.84;5107907;28;19951;-62
2021/01/05 02:40:05;;;;;;;;;;;;;;;-0.19;77.63;101859.03;5107473;28;19980;-61
2021/01/05 02:42:30;;;;;;;;;;;;;;;-0.13;77.37;101839.81;5107810;28;19912;-61
2021/01/05 02:45:13;;;;;;;;;;;;;;;-0.22;77.44;101833.31;5107591;28;19961;-62
2021/01/05 02:47:38;;;;;;;;;;;;;;;-0.23;77.73;101836.66;5107480;28;19912;-62
2021/01/05 02:50:07;;;;;;;;;;;;;;;-0.21;77.66;101850.38;5107135;28;19977;-61
2021/01/05 02:52:32;;;;;;;;;;;;;;;-0.24;77.61;101840.00;5107496;28;19937;-61
2021/01/05 02:55:16;;;;;;;;;;;;;;;-0.26;77.56;101848.44;5107338;28;19912;-62
2021/01/05 02:57:44;;;;;;;;;;;;;;;-0.23;77.46;101837.53;5107391;28;19923;-61
2021/01/05 03:00:24;;;;;;;;;;;;;;;-0.28;77.38;101837.25;5107311;28;19911;-62
2021/01/05 03:02:55;;;;;;;;;;;;;;;-0.33;77.69;101836.09;5107212;28;19922;-62
2021/01/05 03:05:20;;;;;;;;;;;;;;;-0.35;77.83;101832.56;5106942;28;20335;-62
2021/01/05 03:07:47;;;;;;;;;;;;;;;-0.32;77.93;101835.31;5107217;28;20380;-61
2021/01/05 03:10:29;;;;;;;;;;;;;;;-0.29;77.56;101843.13;5107110;28;19908;-61
2021/01/05 03:12:57;;;;;;;;;;;;;;;-0.35;77.72;101829.16;5107124;28;19931;-62
2021/01/05 03:15:48;;;;;;;;;;;;;;;-0.37;77.88;101829.06;5107046;28;19907;-61
2021/01/05 03:18:25;;;;;;;;;;;;;;;-0.39;77.89;101835.75;5105416;28;19908;-61
2021/01/05 03:21:02;;;;;;;;;;;;;;;-0.41;78.09;101844.97;5106642;28;19908;-62
2021/01/05 03:23:28;;;;;;;;;;;;;;;-0.35;77.79;101840.22;5107288;28;19912;-62
2021/01/05 03:25:55;;;;;;;;;;;;;;;-0.34;77.80;101828.34;5106876;28;19908;-62
2021/01/05 03:28:22;;;;;;;;;;;;;;;-0.36;77.90;101829.94;5106970;28;19915;-62
2021/01/05 03:30:58;;;;;;;;;;;;;;;-0.36;77.80;101827.38;5104776;28;19915;-62
2021/01/05 03:33:24;;;;;;;;;;;;;;;-0.34;77.77;101824.16;5106524;28;19908;-61
2021/01/05 03:35:49;;;;;;;;;;;;;;;-0.35;77.81;101822.34;5105873;28;19953;-61
2021/01/05 03:38:14;;;;;;;;;;;;;;;-0.39;77.87;101816.22;5105281;28;20375;-61
2021/01/05 03:40:40;;;;;;;;;;;;;;;-0.39;77.77;101815.31;5106437;28;19908;-61
2021/01/05 03:43:05;;;;;;;;;;;;;;;-0.36;77.99;101792.53;5106367;28;19971;-61
2021/01/05 03:45:31;;;;;;;;;;;;;;;-0.35;77.99;101807.06;5106400;28;19908;-61
2021/01/05 03:47:57;;;;;;;;;;;;;;;-0.29;78.15;101816.75;5104666;28;20226;-61
2021/01/05 03:50:22;;;;;;;;;;;;;;;-0.27;77.88;101818.59;5106088;28;19962;-61
2021/01/05 03:52:48;;;;;;;;;;;;;;;-0.27;77.59;101810.06;5106229;28;19987;-61
2021/01/05 03:55:14;;;;;;;;;;;;;;;-0.26;77.63;101812.69;5106266;28;19908;-61
2021/01/05 03:57:39;;;;;;;;;;;;;;;-0.27;77.63;101815.16;5106114;28;19934;-62
2021/01/05 04:00:06;;;;;;;;;;;;;;;-0.30;77.70;101825.19;5105934;28;19908;-62
2021/01/05 04:02:31;;;;;;;;;;;;;;;-0.31;77.66;101814.13;5106012;28;19919;-61
2021/01/05 04:04:56;;;;;;;;;;;;;;;-0.33;77.74;101823.34;5105802;28;19908;-61
2021/01/05 04:07:22;;;;;;;;;;;;;;;-0.32;77.68;101812.34;5105954;28;19960;-61
2021/01/05 04:09:47;;;;;;;;;;;;;;;-0.34;77.65;101816.50;5104558;28;19908;-61
2021/01/05 04:12:12;;;;;;;;;;;;;;;-0.38;77.75;101817.06;5105944;28;19908;-62
2021/01/05 04:14:37;;;;;;;;;;;;;;;-0.31;77.75;101826.88;5105840;28;19915;-62
2021/01/05 04:17:03;;;;;;;;;;;;;;;-0.37;77.96;101818.84;5105886;28;19983;-63
2021/01/05 04:19:28;;;;;;;;;;;;;;;-0.32;77.76;101821.69;5105283;28;19908;-60
2021/01/05 04:21:53;;;;;;;;;;;;;;;-0.34;77.94;101823.25;5105489;28;20221;-61
2021/01/05 04:24:18;;;;;;;;;;;;;;;-0.33;78.00;101820.78;5105715;28;20321;-61
2021/01/05 04:26:44;;;;;;;;;;;;;;;-0.32;78.00;101822.53;5105544;28;19908;-64
2021/01/05 04:29:10;;;;;;;;;;;;;;;-0.29;78.28;101822.72;5105521;28;19971;-61
2021/01/05 04:31:36;;;;;;;;;;;;;;;-0.23;78.02;101822.22;5105453;28;20060;-61
2021/01/05 04:34:01;;;;;;;;;;;;;;;-0.22;77.88;101826.53;5105426;28;19908;-61
2021/01/05 04:36:27;;;;;;;;;;;;;;;-0.21;78.00;101822.31;5105204;28;19947;-61
2021/01/05 04:38:52;;;;;;;;;;;;;;;-0.18;77.94;101814.84;5105278;28;19920;-61
2021/01/05 04:41:18;;;;;;;;;;;;;;;-0.22;78.04;101816.31;5104083;28;19908;-61
2021/01/05 04:43:50;;;;;;;;;;;;;;;-0.17;77.98;101811.47;5103794;28;19912;-61
2021/01/05 04:46:15;;;;;;;;;;;;;;;-0.15;77.96;101817.56;5086007;28;19995;-61
2021/01/05 04:48:43;;;;;;;;;;;;;;;-0.13;77.93;101813.44;5104963;28;19961;-61
2021/01/05 04:51:32;;;;;;;;;;;;;;;-0.14;77.98;101817.66;5105138;28;19908;-63
2021/01/05 04:54:09;;;;;;;;;;;;;;;-0.18;78.18;101814.84;5105183;28;19999;-61
2021/01/05 04:56:40;;;;;;;;;;;;;;;-0.18;78.35;101814.84;5105024;28;19908;-62
2021/01/05 04:59:09;;;;;;;;;;;;;;;-0.16;78.38;101811.56;5104960;28;19915;-61
2021/01/05 05:01:35;;;;;;;;;;;;;;;-0.11;78.33;101806.72;5105068;28;20248;-61
2021/01/05 05:04:03;;;;;;;;;;;;;;;-0.11;78.40;101800.75;5103453;28;20371;-60
2021/01/05 05:06:34;;;;;;;;;;;;;;;-0.13;78.29;101804.09;5104628;28;19951;-60
2021/01/05 05:09:17;;;;;;;;;;;;;;;-0.16;78.31;101792.84;5104588;28;19919;-60
2021/01/05 05:11:53;;;;;;;;;;;;;;;-0.19;78.54;101787.56;5104749;28;19910;-61
2021/01/05 05:14:35;;;;;;;;;;;;;;;-0.21;78.72;101794.22;5104574;28;19923;-61
2021/01/05 05:17:23;;;;;;;;;;;;;;;-0.21;78.82;101809.56;5104625;28;19908;-61
2021/01/05 05:19:48;;;;;;;;;;;;;;;-0.22;78.97;101805.25;5104414;28;19919;-61
2021/01/05 05:22:13;;;;;;;;;;;;;;;-0.22;79.09;101813.75;5104622;28;19904;-61
2021/01/05 05:24:56;;;;;;;;;;;;;;;-0.21;78.96;101800.22;5104570;28;19978;-61
2021/01/05 05:27:21;;;;;;;;;;;;;;;-0.19;79.20;101797.75;5104692;28;19912;-61
2021/01/05 05:30:05;;;;;;;;;;;;;;;-0.16;79.00;101810.72;5104574;28;20324;-61
2021/01/05 05:32:30;;;;;;;;;;;;;;;-0.16;79.08;101805.59;5104287;28;19908;-61
2021/01/05 05:35:11;;;;;;;;;;;;;;;-0.21;79.28;101807.88;5104146;28;19908;-61
2021/01/05 05:37:57;;;;;;;;;;;;;;;-0.17;79.35;101808.94;5104376;28;19904;-61
2021/01/05 05:40:22;;;;;;;;;;;;;;;-0.10;79.25;101802.50;5103009;28;19981;-62
2021/01/05 05:43:06;;;;;;;;;;;;;;;-0.09;79.30;101806.81;5103701;28;20352;-61
2021/01/05 05:45:34;;;;;;;;;;;;;;;-0.10;79.37;101805.06;5104181;28;19908;-61
2021/01/05 05:48:05;;;;;;;;;;;;;;;-0.13;79.53;101808.34;5104166;28;19911;-62
2021/01/05 05:50:49;;;;;;;;;;;;;;;-0.12;79.46;101810.09;5103880;28;20006;-62
2021/01/05 05:53:19;;;;;;;;;;;;;;;-0.15;79.51;101805.69;5104391;28;19995;-63
2021/01/05 05:55:47;;;;;;;;;;;;;;;-0.15;79.58;101809.91;5104178;28;19908;-62
2021/01/05 05:58:14;;;;;;;;;;;;;;;-0.12;79.77;101810.09;5104051;28;19915;-62
2021/01/05 06:01:00;;;;;;;;;;;;;;;-0.13;79.66;101804.09;5104178;28;19912;-62
2021/01/05 06:03:26;;;;;;;;;;;;;;;-0.10;79.68;101811.06;5104251;28;19915;-61
2021/01/05 06:05:52;;;;;;;;;;;;;;;-0.10;79.81;101813.63;5103877;28;20388;-62
2021/01/05 06:08:18;;;;;;;;;;;;;;;-0.08;79.69;101812.00;5104243;28;19923;-62
2021/01/05 06:10:44;;;;;;;;;;;;;;;-0.03;79.70;101808.06;5104202;28;19923;-62
2021/01/05 06:13:09;;;;;;;;;;;;;;;-0.01;79.72;101810.69;5104263;28;19912;-61
2021/01/05 06:15:34;;;;;;;;;;;;;;;0.03;79.36;101812.66;5104062;28;19915;-61
2021/01/05 06:18:01;;;;;;;;;;;;;;;0.05;79.33;101825.50;5102500;28;20312;-61
2021/01/05 06:20:26;;;;;;;;;;;;;;;-0.06;79.51;101810.44;5103681;28;19949;-62
2021/01/05 06:22:51;;;;;;;;;;;;;;;-0.01;79.51;101818.34;5103906;28;20011;-61
2021/01/05 06:25:16;;;;;;;;;;;;;;;-0.02;79.74;101812.38;5103388;28;19908;-61
2021/01/05 06:27:42;;;;;;;;;;;;;;;-0.01;79.58;101814.16;5104009;28;20158;-61
2021/01/05 06:30:08;;;;;;;;;;;;;;;-0.01;79.59;101813.25;5102913;28;19912;-61
2021/01/05 06:32:33;;;;;;;;;;;;;;;-0.03;79.47;101815.72;5104117;28;19908;-62
2021/01/05 06:34:58;;;;;;;;;;;;;;;-0.04;79.57;101815.63;5103676;28;20443;-63
2021/01/05 06:37:23;;;;;;;;;;;;;;;-0.06;79.65;101815.53;5102538;28;19904;-62
2021/01/05 06:39:49;;;;;;;;;;;;;;;-0.04;79.73;101820.75;5103837;28;19927;-62
2021/01/05 06:42:15;;;;;;;;;;;;;;;-0.02;79.47;101821.72;5103932;28;20119;-62
2021/01/05 06:44:41;;;;;;;;;;;;;;;0.04;79.33;101818.63;5103822;28;19915;-62
2021/01/05 06:47:06;;;;;;;;;;;;;;;-0.02;79.46;101817.47;5103755;28;19916;-62
2021/01/05 06:49:31;;;;;;;;;;;;;;;0.01;79.39;101821.91;5103665;28;19915;-61
2021/01/05 06:51:57;;;;;;;;;;;;;;;0.02;79.38;101818.53;5103687;28;19940;-61
2021/01/05 06:54:22;;;;;;;;;;;;;;;-0.01;79.58;101821.81;5103744;28;19908;-60
2021/01/05 06:56:48;;;;;;;;;;;;;;;0.05;79.41;101823.81;5103810;28;19908;-60
2021/01/05 06:59:14;;;;;;;;;;;;;;;0.03;79.29;101824.53;5103249;28;20031;-61
2021/01/05 07:01:39;;;;;;;;;;;;;;;0.03;79.06;101815.22;5103684;28;19912;-61
2021/01/05 07:04:04;;;;;;;;;;;;;;;0.05;79.21;101818.72;5103380;28;19912;-62
2021/01/05 07:06:30;;;;;;;;;;;;;;;0.04;79.32;101810.97;5101981;28;20355;-61
2021/01/05 07:08:55;;;;;;;;;;;;;;;-0.01;79.05;101819.25;5104092;28;20248;-61
2021/01/05 07:11:20;;;;;;;;;;;;;;;-0.03;79.20;101820.81;5107068;28;19907;-61
2021/01/05 07:13:45;;;;;;;;;;;;;;;0.03;79.05;101819.44;5106932;28;19954;-62
2021/01/05 07:16:10;;;;;;;;;;;;;;;0.01;79.16;101823.56;5106892;28;19914;-62
2021/01/05 07:18:36;;;;;;;;;;;;;;;-0.01;79.31;101826.91;5106933;28;19915;-62
2021/01/05 07:21:01;;;;;;;;;;;;;;;0.01;79.13;101832.09;5106767;28;19955;-62
2021/01/05 07:23:26;;;;;;;;;;;;;;;0.04;79.17;101831.38;5107019;28;19911;-62
2021/01/05 07:25:51;;;;;;;;;;;;;;;0.04;79.01;101822.06;5106974;28;20304;-62
2021/01/05 07:28:17;;;;;;;;;;;;;;;0.02;78.90;101818.53;5105490;28;19970;-62
2021/01/05 07:30:42;;;;;;;;;;;;;;;-0.01;78.95;101828.56;5106708;28;19912;-61
2021/01/05 07:33:07;;;;;;;;;;;;;;;0.03;78.98;101839.84;5106819;28;19934;-61
2021/01/05 07:35:32;;;;;;;;;;;;;;;-0.02;78.92;101831.94;5106484;28;19979;-61
2021/01/05 07:37:58;;;;;;;;;;;;;;;-0.01;78.90;101836.22;5106624;28;19915;-60
2021/01/05 07:40:23;;;;;;;;;;;;;;;0.03;78.92;101842.41;5106355;28;19930;-61
2021/01/05 07:42:48;;;;;;;;;;;;;;;0.08;78.77;101835.91;5106428;28;19975;-61
2021/01/05 07:45:19;;;;;;;;;;;;;;;0.05;78.63;101840.84;5106506;28;20375;-61
2021/01/05 07:47:44;;;;;;;;;;;;;;;-0.02;78.81;101837.91;5106504;28;19933;-61
2021/01/05 07:50:16;;;;;;;;;;;;;;;0.02;78.82;101833.00;5106165;28;20006;-61
2021/01/05 07:52:41;;;;;;;;;;;;;;;-0.01;78.90;101839.69;5105189;28;19912;-61
2021/01/05 07:55:08;;;;;;;;;;;;;;;-0.06;78.87;101841.06;5106113;28;19956;-61
2021/01/05 07:57:33;;;;;;;;;;;;;;;-0.07;79.00;101843.53;5106383;28;19908;-60
2021/01/05 07:59:59;;;;;;;;;;;;;;;-0.05;79.09;101842.81;5106104;28;19916;-60
2021/01/05 08:02:24;;;;;;;;;;;;;;;0.02;78.89;101844.06;5106269;28;19995;-60
2021/01/05 08:04:49;;;;;;;;;;;;;;;0.01;78.92;101842.31;5106130;28;20372;-61
2021/01/05 08:07:15;;;;;;;;;;;;;;;0.05;78.92;101839.13;5106323;28;20260;-61
2021/01/05 08:09:41;;;;;;;;;;;;;;;0.04;78.88;101842.50;5106105;28;19915;-61
2021/01/05 08:12:16;;;;;;;;;;;;;;;0.04;78.94;101836.50;5105987;28;20003;-61
2021/01/05 08:14:42;;;;;;;;;;;;;;;0.08;79.05;101838.47;5105930;28;19923;-60
2021/01/05 08:17:07;;;;;;;;;;;;;;;0.05;78.84;101841.69;5106016;28;19938;-61
2021/01/05 08:19:32;;;;;;;;;;;;;;;0.07;78.78;101846.88;5104343;28;20014;-61
2021/01/05 08:23:48;;;;;;;5.57;3.45;;;;;;;0.07;78.84;101850.34;5101201;27;20379;-60
2021/01/05 08:26:13;;;;;;;5.93;3.88;;;;;;;0.06;78.96;101860.47;5101149;28;20096;-61
2021/01/05 08:28:39;;;;;;;4.93;2.35;;;;;;;0.10;78.82;101854.72;5099911;28;20067;-61
2021/01/05 08:31:04;;;;;;;4.10;2.30;;;;;;;0.10;78.76;101857.28;5099681;28;20039;-64
2021/01/05 08:33:29;;;;;;;5.05;2.97;;;;;;;0.13;78.67;101856.59;5100917;28;20017;-61
2021/01/05 08:35:55;;;;;;;5.53;2.45;;;;;;;0.13;78.72;101859.16;5099685;28;20016;-62
2021/01/05 08:38:20;;;;;;;8.10;3.55;;;;;;;0.10;78.50;101845.41;5100673;28;20058;-60
2021/01/05 08:40:46;;;;;;;5.38;2.90;;;;;;;0.11;78.59;101857.38;5100800;28;20333;-61
2021/01/05 08:43:11;;;;;;;3.42;3.08;;;;;;;0.10;78.74;101852.19;5099627;28;20028;-62
2021/01/05 08:45:39;;;;;;;5.88;3.17;;;;;;;0.11;78.40;101859.94;5100843;28;20024;-61
2021/01/05 08:48:05;;;;;;;4.55;2.97;;;;;;;0.08;78.59;101858.88;5101066;28;20468;-62
2021/01/05 08:50:32;;;;;;;3.75;2.75;;;;;;;0.10;78.60;101867.50;5100397;28;20020;-60
2021/01/05 08:53:05;;;;;;;4.43;3.17;;;;;;;0.17;78.44;101874.75;5099594;28;20023;-62
2021/01/05 08:55:35;;;;;;;7.78;3.90;;;;;;;0.17;78.45;101871.31;5100496;28;20028;-62
2021/01/05 08:58:01;;;;;;;4.03;2.72;;;;;;;0.23;78.08;101867.44;5100772;28;20126;-61
2021/01/05 09:00:26;;;;;;;5.57;3.10;;;;;;;0.23;78.03;101877.66;5100577;28;20036;-61
2021/01/05 09:02:52;;;;;;;4.78;2.35;;;;;;;0.22;77.78;101860.53;5100373;28;20059;-60
2021/01/05 09:05:17;;;;;;;3.88;2.92;;;;;;;0.20;78.03;101858.69;5098757;28;20039;-61
2021/01/05 09:07:43;;;;;;;4.60;2.72;;;;;;;0.20;78.21;101861.25;5100415;28;20042;-61
2021/01/05 09:10:16;;;;;;;6.20;3.58;;;;;;;0.18;78.21;101863.72;5100329;28;20511;-61
2021/01/05 09:12:41;;;;;;;3.03;2.30;;;;;;;0.24;78.22;101866.63;5100420;28;20074;-61
2021/01/05 09:15:07;;;;;;;5.35;3.95;;;;;;;0.21;78.23;101858.78;5100295;28;20020;-61
2021/01/05 09:17:32;;;;;;;4.90;3.42;;;;;;;0.29;78.27;101866.03;5100186;28;20020;-62
2021/01/05 09:19:58;;;;;;;5.38;3.50;;;;;;;0.31;78.16;101864.44;5099815;28;20031;-62
2021/01/05 09:22:25;;;;;;;4.38;2.38;;;;;;;0.28;78.12;101871.91;5099837;28;20461;-62
2021/01/05 09:24:51;;;;;;;4.78;3.53;;;;;;;0.26;78.17;101866.72;5100060;28;20653;-62
2021/01/05 09:27:16;;;;;;;5.35;2.95;;;;;;;0.27;78.04;101865.06;5100321;28;20080;-63
2021/01/05 09:29:42;;;;;;;2.97;2.10;;;;;;;0.26;78.24;101868.41;5099525;28;20039;-62
2021/01/05 09:32:07;;;;;;;3.80;2.42;;;;;;;0.24;78.34;101860.63;5099884;28;20027;-60
2021/01/05 09:34:33;;;;;;;5.13;3.47;;;;;;;0.27;78.22;101853.19;5089839;28;20030;-60
2021/01/05 09:36:58;;;;;;;6.70;4.22;;;;;;;0.28;78.30;101857.47;5086090;28;20086;-60
2021/01/05 09:39:24;;;;;;;4.65;3.10;;;;;;;0.24;78.10;101850.41;5085736;28;20028;-62
2021/01/05 09:42:01;;;;;;;3.45;3.08;;;;;;;0.27;78.33;101865.06;5085212;28;20059;-61
2021/01/05 09:44:27;;;;;;;7.70;3.88;;;;;;;0.29;78.14;101860.94;5086114;28;20055;-61
2021/01/05 09:46:56;;;;;;;5.88;3.45;;;;;;;0.35;77.96;101862.13;5086340;28;20021;-61
2021/01/05 09:49:23;;;;;;;4.90;3.08;;;;;;;0.35;78.11;101858.72;5084575;28;20119;-62
2021/01/05 09:51:48;;;;;;;5.57;2.58;;;;;;;0.46;77.81;101859.31;5084865;28;20050;-62
2021/01/05 09:54:15;;;;;;;5.90;3.20;;;;;;;0.43;78.08;101862.56;5084717;28;20016;-61
2021/01/05 09:56:41;;;;;;;7.88;4.35;;;;;;;0.43;78.16;101866.81;5086067;28;20016;-60
2021/01/05 09:59:06;;;;;;;4.53;2.63;;;;;;;0.44;78.24;101872.00;5085938;28;20093;-62
2021/01/05 10:01:33;;;;;;;4.07;3.38;;;;;;;0.43;77.90;101857.47;5085772;28;20028;-63
2021/01/05 10:03:59;;;;;;;3.80;2.42;;;;;;;0.40;77.86;101864.09;5085929;28;20020;-63
2021/01/05 10:06:29;;;;;;;5.70;4.32;;;;;;;0.40;77.87;101864.94;5085640;28;20035;-63
2021/01/05 10:08:55;;;;;;;5.95;4.00;;;;;;;0.36;78.03;101863.03;5086188;28;20302;-63
2021/01/05 10:11:20;;;;;;;6.28;4.00;;;;;;;0.45;77.93;101865.22;5085747;28;20131;-63
2021/01/05 10:13:46;;;;;;;6.82;3.72;;;;;;;0.42;78.11;101855.72;5085656;28;20439;-62
2021/01/05 10:16:12;;;;;;;4.15;3.03;;;;;;;0.45;77.92;101857.53;5085634;28;20052;-63
2021/01/05 10:18:37;;;;;;;5.78;3.65;;;;;;;0.46;78.10;101849.97;5085489;28;20035;-61
2021/01/05 10:21:02;;;;;;;3.97;2.92;;;;;;;0.49;78.02;101850.16;5085287;28;20021;-62
2021/01/05 10:23:28;;;;;;;4.68;2.95;;;;;;;0.53;78.00;101850.34;5085276;28;20438;-61
2021/01/05 10:25:53;;;;;;;7.00;3.58;;;;;;;0.52;77.99;101851.09;5084036;28;20020;-62
2021/01/05 10:28:19;;;;;;;4.63;3.40;;;;;;;0.51;78.03;101852.81;5085427;28;20031;-62
2021/01/05 10:30:44;;;;;;;8.65;4.90;;;;;;;0.57;77.74;101850.59;5083812;28;20086;-61
2021/01/05 10:33:10;;;;;;;4.93;3.05;;;;;;;0.56;77.93;101851.38;5085287;28;20070;-61
2021/01/05 10:35:35;;;;;;;4.82;3.10;;;;;;;0.60;77.68;101850.75;5084997;28;20016;-62
2021/01/05 10:38:01;;;;;;;4.63;3.00;;;;;;;0.58;77.76;101852.34;5085130;28;20024;-61
2021/01/05 10:40:26;;;;;;;5.00;3.65;;;;;;;0.62;77.85;101853.41;5085015;28;20028;-61
2021/01/05 10:42:52;;;;;;;6.63;2.90;;;;;;;0.65;77.70;101845.91;5085131;28;20158;-62
2021/01/05 10:45:21;;;;;;;6.43;4.38;;;;;;;0.65;77.86;101837.34;5083927;28;20021;-61
2021/01/05 10:47:47;;;;;;;6.72;3.20;;;;;;;0.72;77.77;101855.66;5084969;28;20027;-61
2021/01/05 10:50:15;;;;;;;6.70;2.97;;;;;;;0.71;77.71;101859.03;5084414;28;20440;-61
2021/01/05 10:52:40;;;;;;;4.38;3.25;;;;;;;0.71;77.54;101838.56;5084777;28;20027;-62
2021/01/05 10:55:06;;;;;;;4.70;3.13;;;;;;;0.69;77.67;101847.81;5083538;28;20017;-62
2021/01/05 10:57:32;;;;;;;5.57;3.25;;;;;;;0.70;77.13;101839.34;5085138;28;20031;-62
2021/01/05 10:59:58;;;;;;;3.30;2.55;;;;;;;0.70;77.25;101849.56;5084584;28;20020;-61
2021/01/05 11:02:23;;;;;;;3.85;3.08;;;;;;;0.65;77.19;101838.25;5084666;28;20024;-61
2021/01/05 11:04:48;;;;;;;5.97;3.92;;;;;;;0.63;77.38;101834.72;5084616;28;20032;-62
2021/01/05 11:07:16;;;;;;;3.45;2.58;;;;;;;0.64;77.47;101826.22;5083160;28;20020;-62
2021/01/05 11:09:42;;;;;;;4.28;3.38;;;;;;;0.60;77.40;101834.53;5084292;28;20029;-60
2021/01/05 11:12:11;;;;;;;4.03;3.00;;;;;;;0.61;77.45;101836.28;5084827;28;20016;-61
2021/01/05 11:14:38;;;;;;;4.85;3.08;;;;;;;0.61;77.58;101833.72;5083783;28;20039;-61
2021/01/05 11:17:03;;;;;;;4.43;3.30;;;;;;;0.67;77.71;101831.50;5082441;28;20051;-61
2021/01/05 11:19:29;;;;;;;8.00;4.35;;;;;;;0.71;77.60;101825.78;5079100;28;20584;-61
2021/01/05 11:21:59;;;;;;;7.10;3.75;;;;;;;0.78;77.41;101828.69;5079750;28;20082;-61
2021/01/05 11:24:26;;;;;;;4.15;1.65;;;;;;;0.80;77.34;101834.78;5080075;28;20013;-62
2021/01/05 11:26:52;;;;;;;5.15;3.65;;;;;;;0.74;77.29;101833.63;5079682;28;20118;-61
2021/01/05 11:29:19;;;;;;;3.15;2.45;;;;;;;0.74;77.38;101828.50;5079739;28;20364;-62
2021/01/05 11:31:51;;;;;;;3.42;2.28;;;;;;;0.74;77.04;101830.19;5080294;28;20091;-62
2021/01/05 11:34:16;;;;;;;4.18;3.35;;;;;;;0.72;77.10;101830.09;5084156;28;20024;-62
2021/01/05 11:36:42;;;;;;;5.75;3.25;;;;;;;0.69;77.11;101835.03;5082533;28;20048;-61
2021/01/05 11:39:07;;;;;;;4.90;2.50;;;;;;;0.69;77.15;101829.94;5084170;28;20369;-62
2021/01/05 11:41:35;;;;;;;5.22;3.17;;;;;;;0.71;77.02;101827.47;5083919;28;20219;-61
2021/01/05 11:44:01;;;;;;;6.35;2.97;;;;;;;0.76;76.87;101827.72;5083920;28;20025;-61
2021/01/05 11:46:27;;;;;;;5.95;3.38;;;;;;;0.68;77.14;101820.50;5084202;28;20499;-62
2021/01/05 11:48:53;;;;;;;3.97;2.63;;;;;;;0.67;77.13;101821.28;5083928;28;20055;-61
2021/01/05 11:51:22;;;;;;;3.70;2.03;;;;;;;0.70;76.90;101811.22;5083714;28;20024;-61
2021/01/05 11:53:47;;;;;;;5.05;3.45;;;;;;;0.71;76.79;101818.13;5083856;28;20020;-62
2021/01/05 11:56:24;;;;;;;5.03;3.30;;;;;;;0.64;77.14;101799.81;5083385;28;20050;-61
2021/01/05 11:58:50;;;;;;;2.95;2.20;;;;;;;0.65;77.37;101807.56;5083796;28;20035;-62
2021/01/05 12:01:16;;;;;;;6.03;3.38;;;;;;;0.74;77.24;101799.50;5083686;28;20021;-61
2021/01/05 12:03:41;;;;;;;5.13;3.75;;;;;;;0.76;77.19;101800.47;5083364;28;20551;-62
2021/01/05 12:06:11;;;;;;;4.60;3.42;;;;;;;0.66;77.14;101798.19;5083424;28;20031;-62
2021/01/05 12:08:36;;;;;;;5.57;3.65;;;;;;;0.70;77.20;101808.69;5083996;28;20105;-61
2021/01/05 12:11:02;;;;;;;3.53;2.42;;;;;;;0.70;77.24;101805.25;5083636;28;20028;-62
2021/01/05 12:13:27;;;;;;;5.80;2.63;;;;;;;0.65;77.36;101802.44;5083760;28;20040;-61
2021/01/05 12:15:52;;;;;;;5.57;3.20;;;;;;;0.67;77.31;101803.41;5083675;28;20024;-63
2021/01/05 12:18:18;;;;;;;4.78;3.25;;;;;;;0.69;77.33;101803.47;5083709;28;20060;-62
2021/01/05 12:20:43;;;;;;;5.50;3.10;;;;;;;0.73;77.29;101800.31;5083391;28;20046;-62